sensor_id;sensor_type;location;lat;lon;timestamp;P1;durP1;ratioP1;P2;durP2;ratioP2
38379;SDS011;38377;47.418;18.882;2022-09-12T00:01:19;7.07;;;4.60;;
38379;SDS011;38377;47.418;18.882;2022-09-12T00:03:46;4.47;;;3.95;;
38379;SDS011;38377;47.418;18.882;2022-09-12T00:06:23;4.70;;;4.30;;
38379;SDS011;38377;47.418;18.882;2022-09-12T00:08:49;4.45;;;4.03;;
38379;SDS011;38377;47.418;18.882;2022-09-12T00:11:15;4.93;;;4.35;;
38379;SDS011;38377;47.418;18.882;2022-09-12T00:13:41;4.45;;;4.05;;
38379;SDS011;38377;47.418;18.882;2022-09-12T00:16:13;4.07;;;3.67;;
38379;SDS011;38377;47.418;18.882;2022-09-12T00:18:49;4.90;;;4.40;;
38379;SDS011;38377;47.418;18.882;2022-09-12T00:21:16;4.40;;;4.00;;
38379;SDS011;38377;47.418;18.882;2022-09-12T00:23:42;5.60;;;4.28;;
38379;SDS011;38377;47.418;18.882;2022-09-12T00:26:09;5.32;;;4.28;;
38379;SDS011;38377;47.418;18.882;2022-09-12T00:28:35;6.05;;;4.97;;
38379;SDS011;38377;47.418;18.882;2022-09-12T00:31:07;5.15;;;4.35;;
38379;SDS011;38377;47.418;18.882;2022-09-12T00:33:36;6.13;;;5.22;;
38379;SDS011;38377;47.418;18.882;2022-09-12T00:36:05;5.90;;;5.30;;
38379;SDS011;38377;47.418;18.882;2022-09-12T00:38:33;7.05;;;5.63;;
38379;SDS011;38377;47.418;18.882;2022-09-12T00:41:03;5.90;;;5.30;;
38379;SDS011;38377;47.418;18.882;2022-09-12T00:46:09;6.22;;;5.30;;
38379;SDS011;38377;47.418;18.882;2022-09-12T00:49:04;5.53;;;5.03;;
38379;SDS011;38377;47.418;18.882;2022-09-12T00:51:44;5.97;;;5.38;;
38379;SDS011;38377;47.418;18.882;2022-09-12T00:54:19;6.68;;;5.60;;
38379;SDS011;38377;47.418;18.882;2022-09-12T00:56:49;6.45;;;5.85;;
38379;SDS011;38377;47.418;18.882;2022-09-12T00:59:20;5.60;;;5.07;;
38379;SDS011;38377;47.418;18.882;2022-09-12T01:01:49;8.57;;;5.43;;
38379;SDS011;38377;47.418;18.882;2022-09-12T01:04:17;5.57;;;5.07;;
38379;SDS011;38377;47.418;18.882;2022-09-12T01:06:45;6.07;;;5.53;;
38379;SDS011;38377;47.418;18.882;2022-09-12T01:09:15;5.93;;;5.22;;
38379;SDS011;38377;47.418;18.882;2022-09-12T01:11:43;5.85;;;4.88;;
38379;SDS011;38377;47.418;18.882;2022-09-12T01:14:11;6.03;;;5.47;;
38379;SDS011;38377;47.418;18.882;2022-09-12T01:16:38;5.55;;;5.03;;
38379;SDS011;38377;47.418;18.882;2022-09-12T01:27:32;6.57;;;5.72;;
38379;SDS011;38377;47.418;18.882;2022-09-12T01:33:05;7.57;;;5.88;;
38379;SDS011;38377;47.418;18.882;2022-09-12T01:38:45;7.13;;;6.28;;
38379;SDS011;38377;47.418;18.882;2022-09-12T01:47:25;7.80;;;6.80;;
38379;SDS011;38377;47.418;18.882;2022-09-12T01:57:39;7.88;;;6.90;;
38379;SDS011;38377;47.418;18.882;2022-09-12T02:00:11;7.55;;;6.85;;
38379;SDS011;38377;47.418;18.882;2022-09-12T02:02:38;11.05;;;7.60;;
38379;SDS011;38377;47.418;18.882;2022-09-12T02:07:45;9.60;;;7.93;;
38379;SDS011;38377;47.418;18.882;2022-09-12T02:10:17;8.68;;;7.78;;
38379;SDS011;38377;47.418;18.882;2022-09-12T02:12:51;9.00;;;8.10;;
38379;SDS011;38377;47.418;18.882;2022-09-12T02:15:37;8.82;;;7.93;;
38379;SDS011;38377;47.418;18.882;2022-09-12T02:18:07;12.35;;;8.82;;
38379;SDS011;38377;47.418;18.882;2022-09-12T02:20:39;10.77;;;8.45;;
38379;SDS011;38377;47.418;18.882;2022-09-12T02:23:08;10.05;;;9.05;;
38379;SDS011;38377;47.418;18.882;2022-09-12T02:25:39;10.40;;;8.60;;
38379;SDS011;38377;47.418;18.882;2022-09-12T02:28:50;10.13;;;9.07;;
38379;SDS011;38377;47.418;18.882;2022-09-12T02:39:56;15.68;;;9.18;;
38379;SDS011;38377;47.418;18.882;2022-09-12T02:42:22;11.57;;;9.18;;
38379;SDS011;38377;47.418;18.882;2022-09-12T02:44:49;10.07;;;9.05;;
38379;SDS011;38377;47.418;18.882;2022-09-12T02:47:27;11.63;;;9.30;;
38379;SDS011;38377;47.418;18.882;2022-09-12T02:49:54;11.43;;;9.50;;
38379;SDS011;38377;47.418;18.882;2022-09-12T02:52:22;11.65;;;9.52;;
38379;SDS011;38377;47.418;18.882;2022-09-12T02:54:48;9.93;;;8.93;;
38379;SDS011;38377;47.418;18.882;2022-09-12T02:57:15;10.07;;;8.50;;
38379;SDS011;38377;47.418;18.882;2022-09-12T02:59:43;12.63;;;9.95;;
38379;SDS011;38377;47.418;18.882;2022-09-12T03:21:39;10.23;;;9.15;;
38379;SDS011;38377;47.418;18.882;2022-09-12T03:24:34;10.25;;;8.73;;
38379;SDS011;38377;47.418;18.882;2022-09-12T03:29:44;12.30;;;9.45;;
38379;SDS011;38377;47.418;18.882;2022-09-12T03:32:12;10.95;;;8.98;;
38379;SDS011;38377;47.418;18.882;2022-09-12T03:34:39;11.68;;;8.70;;
38379;SDS011;38377;47.418;18.882;2022-09-12T03:37:05;9.40;;;7.75;;
38379;SDS011;38377;47.418;18.882;2022-09-12T03:39:31;11.95;;;8.20;;
38379;SDS011;38377;47.418;18.882;2022-09-12T03:41:57;11.23;;;8.32;;
38379;SDS011;38377;47.418;18.882;2022-09-12T03:44:23;9.38;;;8.25;;
38379;SDS011;38377;47.418;18.882;2022-09-12T03:46:49;11.40;;;8.25;;
38379;SDS011;38377;47.418;18.882;2022-09-12T03:49:15;11.73;;;8.90;;
38379;SDS011;38377;47.418;18.882;2022-09-12T03:51:41;11.40;;;8.40;;
38379;SDS011;38377;47.418;18.882;2022-09-12T03:54:07;10.90;;;8.50;;
38379;SDS011;38377;47.418;18.882;2022-09-12T03:56:34;12.18;;;8.40;;
38379;SDS011;38377;47.418;18.882;2022-09-12T03:59:03;10.35;;;8.63;;
38379;SDS011;38377;47.418;18.882;2022-09-12T04:01:30;10.85;;;8.32;;
38379;SDS011;38377;47.418;18.882;2022-09-12T04:03:56;11.32;;;8.13;;
38379;SDS011;38377;47.418;18.882;2022-09-12T04:06:22;11.27;;;8.75;;
38379;SDS011;38377;47.418;18.882;2022-09-12T04:08:51;10.35;;;8.48;;
38379;SDS011;38377;47.418;18.882;2022-09-12T04:11:19;10.03;;;8.53;;
38379;SDS011;38377;47.418;18.882;2022-09-12T04:13:46;11.52;;;9.02;;
38379;SDS011;38377;47.418;18.882;2022-09-12T04:16:12;13.68;;;9.25;;
38379;SDS011;38377;47.418;18.882;2022-09-12T04:18:39;10.93;;;8.50;;
38379;SDS011;38377;47.418;18.882;2022-09-12T04:21:05;10.80;;;8.52;;
38379;SDS011;38377;47.418;18.882;2022-09-12T04:23:33;14.05;;;9.05;;
38379;SDS011;38377;47.418;18.882;2022-09-12T04:26:00;13.50;;;8.68;;
38379;SDS011;38377;47.418;18.882;2022-09-12T04:28:27;11.23;;;8.30;;
38379;SDS011;38377;47.418;18.882;2022-09-12T04:30:54;10.38;;;8.73;;
38379;SDS011;38377;47.418;18.882;2022-09-12T04:33:20;10.18;;;8.88;;
38379;SDS011;38377;47.418;18.882;2022-09-12T04:35:46;12.35;;;9.20;;
38379;SDS011;38377;47.418;18.882;2022-09-12T04:38:12;11.55;;;9.38;;
38379;SDS011;38377;47.418;18.882;2022-09-12T04:40:38;12.60;;;9.32;;
38379;SDS011;38377;47.418;18.882;2022-09-12T04:43:05;12.55;;;9.45;;
38379;SDS011;38377;47.418;18.882;2022-09-12T04:45:31;13.68;;;9.30;;
38379;SDS011;38377;47.418;18.882;2022-09-12T04:47:57;12.82;;;9.60;;
38379;SDS011;38377;47.418;18.882;2022-09-12T04:50:23;10.88;;;9.40;;
38379;SDS011;38377;47.418;18.882;2022-09-12T04:52:52;12.25;;;9.45;;
38379;SDS011;38377;47.418;18.882;2022-09-12T04:55:19;12.02;;;9.65;;
38379;SDS011;38377;47.418;18.882;2022-09-12T04:57:45;15.25;;;10.60;;
38379;SDS011;38377;47.418;18.882;2022-09-12T05:00:11;13.27;;;9.45;;
38379;SDS011;38377;47.418;18.882;2022-09-12T05:02:39;13.65;;;9.63;;
38379;SDS011;38377;47.418;18.882;2022-09-12T05:05:05;13.32;;;9.20;;
38379;SDS011;38377;47.418;18.882;2022-09-12T05:07:31;13.75;;;10.38;;
38379;SDS011;38377;47.418;18.882;2022-09-12T05:09:57;13.25;;;9.98;;
38379;SDS011;38377;47.418;18.882;2022-09-12T05:12:23;11.65;;;9.00;;
38379;SDS011;38377;47.418;18.882;2022-09-12T05:14:48;13.00;;;9.90;;
38379;SDS011;38377;47.418;18.882;2022-09-12T05:17:14;15.38;;;10.52;;
38379;SDS011;38377;47.418;18.882;2022-09-12T05:19:40;12.57;;;9.85;;
38379;SDS011;38377;47.418;18.882;2022-09-12T05:22:06;14.77;;;10.43;;
38379;SDS011;38377;47.418;18.882;2022-09-12T05:24:31;12.95;;;9.55;;
38379;SDS011;38377;47.418;18.882;2022-09-12T05:26:57;11.35;;;9.52;;
38379;SDS011;38377;47.418;18.882;2022-09-12T05:29:23;12.48;;;9.52;;
38379;SDS011;38377;47.418;18.882;2022-09-12T05:31:49;12.25;;;9.20;;
38379;SDS011;38377;47.418;18.882;2022-09-12T05:34:16;13.02;;;9.77;;
38379;SDS011;38377;47.418;18.882;2022-09-12T05:36:42;11.98;;;9.48;;
38379;SDS011;38377;47.418;18.882;2022-09-12T05:39:08;10.52;;;8.38;;
38379;SDS011;38377;47.418;18.882;2022-09-12T05:41:34;10.73;;;8.98;;
38379;SDS011;38377;47.418;18.882;2022-09-12T05:44:04;10.52;;;8.68;;
38379;SDS011;38377;47.418;18.882;2022-09-12T05:46:34;11.38;;;9.43;;
38379;SDS011;38377;47.418;18.882;2022-09-12T05:49:02;14.25;;;9.15;;
38379;SDS011;38377;47.418;18.882;2022-09-12T05:53:59;13.90;;;9.65;;
38379;SDS011;38377;47.418;18.882;2022-09-12T05:56:30;13.65;;;10.50;;
38379;SDS011;38377;47.418;18.882;2022-09-12T05:59:02;10.38;;;8.85;;
38379;SDS011;38377;47.418;18.882;2022-09-12T06:01:30;11.48;;;9.13;;
38379;SDS011;38377;47.418;18.882;2022-09-12T06:03:58;11.50;;;9.65;;
38379;SDS011;38377;47.418;18.882;2022-09-12T06:06:25;10.35;;;8.73;;
38379;SDS011;38377;47.418;18.882;2022-09-12T06:08:53;10.02;;;8.30;;
38379;SDS011;38377;47.418;18.882;2022-09-12T06:11:22;11.90;;;9.48;;
38379;SDS011;38377;47.418;18.882;2022-09-12T06:13:50;9.98;;;8.23;;
38379;SDS011;38377;47.418;18.882;2022-09-12T06:16:18;10.38;;;8.50;;
38379;SDS011;38377;47.418;18.882;2022-09-12T06:18:50;12.10;;;8.45;;
38379;SDS011;38377;47.418;18.882;2022-09-12T06:21:18;11.63;;;9.10;;
38379;SDS011;38377;47.418;18.882;2022-09-12T06:23:44;10.13;;;8.00;;
38379;SDS011;38377;47.418;18.882;2022-09-12T06:26:11;9.65;;;7.68;;
38379;SDS011;38377;47.418;18.882;2022-09-12T06:28:38;12.45;;;8.70;;
38379;SDS011;38377;47.418;18.882;2022-09-12T06:31:09;10.63;;;8.40;;
38379;SDS011;38377;47.418;18.882;2022-09-12T06:33:38;9.68;;;7.15;;
38379;SDS011;38377;47.418;18.882;2022-09-12T06:38:32;8.48;;;7.13;;
38379;SDS011;38377;47.418;18.882;2022-09-12T06:40:58;11.88;;;7.80;;
38379;SDS011;38377;47.418;18.882;2022-09-12T06:43:24;8.48;;;7.22;;
38379;SDS011;38377;47.418;18.882;2022-09-12T06:45:51;10.18;;;7.97;;
38379;SDS011;38377;47.418;18.882;2022-09-12T06:48:17;9.77;;;7.97;;
38379;SDS011;38377;47.418;18.882;2022-09-12T06:50:42;11.55;;;7.32;;
38379;SDS011;38377;47.418;18.882;2022-09-12T06:53:08;8.60;;;7.70;;
38379;SDS011;38377;47.418;18.882;2022-09-12T06:55:34;9.75;;;7.63;;
38379;SDS011;38377;47.418;18.882;2022-09-12T06:57:59;9.85;;;7.07;;
38379;SDS011;38377;47.418;18.882;2022-09-12T07:00:25;8.07;;;6.53;;
38379;SDS011;38377;47.418;18.882;2022-09-12T07:02:54;9.35;;;6.78;;
38379;SDS011;38377;47.418;18.882;2022-09-12T07:05:23;7.25;;;5.93;;
38379;SDS011;38377;47.418;18.882;2022-09-12T07:07:48;8.55;;;6.13;;
38379;SDS011;38377;47.418;18.882;2022-09-12T07:10:14;6.47;;;5.70;;
38379;SDS011;38377;47.418;18.882;2022-09-12T07:12:40;7.60;;;6.75;;
38379;SDS011;38377;47.418;18.882;2022-09-12T07:15:06;6.85;;;6.15;;
38379;SDS011;38377;47.418;18.882;2022-09-12T07:17:32;6.97;;;6.00;;
38379;SDS011;38377;47.418;18.882;2022-09-12T07:19:58;7.30;;;6.05;;
38379;SDS011;38377;47.418;18.882;2022-09-12T07:22:23;9.40;;;6.63;;
38379;SDS011;38377;47.418;18.882;2022-09-12T07:24:49;8.80;;;5.88;;
38379;SDS011;38377;47.418;18.882;2022-09-12T07:27:15;5.72;;;4.78;;
38379;SDS011;38377;47.418;18.882;2022-09-12T07:29:40;6.65;;;5.28;;
38379;SDS011;38377;47.418;18.882;2022-09-12T07:32:06;6.25;;;4.47;;
38379;SDS011;38377;47.418;18.882;2022-09-12T07:34:33;6.35;;;4.78;;
38379;SDS011;38377;47.418;18.882;2022-09-12T07:36:59;6.45;;;5.03;;
38379;SDS011;38377;47.418;18.882;2022-09-12T07:39:24;6.25;;;4.80;;
38379;SDS011;38377;47.418;18.882;2022-09-12T07:41:50;5.55;;;4.40;;
38379;SDS011;38377;47.418;18.882;2022-09-12T07:44:16;6.32;;;4.95;;
38379;SDS011;38377;47.418;18.882;2022-09-12T07:46:41;5.43;;;4.75;;
38379;SDS011;38377;47.418;18.882;2022-09-12T07:49:07;6.30;;;5.18;;
38379;SDS011;38377;47.418;18.882;2022-09-12T07:51:33;5.70;;;4.57;;
38379;SDS011;38377;47.418;18.882;2022-09-12T07:53:58;5.85;;;4.72;;
38379;SDS011;38377;47.418;18.882;2022-09-12T07:56:25;7.07;;;5.22;;
38379;SDS011;38377;47.418;18.882;2022-09-12T07:58:52;5.63;;;4.57;;
38379;SDS011;38377;47.418;18.882;2022-09-12T08:01:20;5.03;;;4.43;;
38379;SDS011;38377;47.418;18.882;2022-09-12T08:03:51;4.88;;;3.80;;
38379;SDS011;38377;47.418;18.882;2022-09-12T08:06:19;5.35;;;4.18;;
38379;SDS011;38377;47.418;18.882;2022-09-12T08:08:48;4.72;;;4.20;;
38379;SDS011;38377;47.418;18.882;2022-09-12T08:11:15;3.85;;;3.45;;
38379;SDS011;38377;47.418;18.882;2022-09-12T08:13:43;5.57;;;3.65;;
38379;SDS011;38377;47.418;18.882;2022-09-12T08:16:11;3.95;;;3.03;;
38379;SDS011;38377;47.418;18.882;2022-09-12T08:18:38;4.68;;;3.28;;
38379;SDS011;38377;47.418;18.882;2022-09-12T08:21:06;3.58;;;3.20;;
38379;SDS011;38377;47.418;18.882;2022-09-12T08:23:35;3.65;;;2.60;;
38379;SDS011;38377;47.418;18.882;2022-09-12T08:26:01;4.72;;;3.28;;
38379;SDS011;38377;47.418;18.882;2022-09-12T08:28:29;4.18;;;2.97;;
38379;SDS011;38377;47.418;18.882;2022-09-12T08:31:09;3.58;;;2.72;;
38379;SDS011;38377;47.418;18.882;2022-09-12T08:33:37;4.38;;;2.78;;
38379;SDS011;38377;47.418;18.882;2022-09-12T08:38:29;4.55;;;3.00;;
38379;SDS011;38377;47.418;18.882;2022-09-12T08:41:29;5.03;;;3.03;;
38379;SDS011;38377;47.418;18.882;2022-09-12T08:46:30;3.85;;;2.70;;
38379;SDS011;38377;47.418;18.882;2022-09-12T08:50:04;2.50;;;2.30;;
38379;SDS011;38377;47.418;18.882;2022-09-12T08:54:57;2.80;;;2.50;;
38379;SDS011;38377;47.418;18.882;2022-09-12T08:57:24;3.63;;;2.50;;
38379;SDS011;38377;47.418;18.882;2022-09-12T08:59:50;3.15;;;2.50;;
38379;SDS011;38377;47.418;18.882;2022-09-12T09:04:51;2.97;;;2.38;;
38379;SDS011;38377;47.418;18.882;2022-09-12T09:10:27;1.95;;;1.80;;
38379;SDS011;38377;47.418;18.882;2022-09-12T09:16:37;3.00;;;2.28;;
38379;SDS011;38377;47.418;18.882;2022-09-12T09:19:25;2.72;;;2.20;;
38379;SDS011;38377;47.418;18.882;2022-09-12T09:22:00;2.42;;;1.88;;
38379;SDS011;38377;47.418;18.882;2022-09-12T09:24:36;2.50;;;2.10;;
38379;SDS011;38377;47.418;18.882;2022-09-12T09:27:09;2.50;;;2.28;;
38379;SDS011;38377;47.418;18.882;2022-09-12T09:29:40;3.05;;;2.25;;
38379;SDS011;38377;47.418;18.882;2022-09-12T09:34:51;2.20;;;1.80;;
38379;SDS011;38377;47.418;18.882;2022-09-12T09:37:18;2.22;;;2.00;;
38379;SDS011;38377;47.418;18.882;2022-09-12T09:42:34;2.80;;;2.00;;
38379;SDS011;38377;47.418;18.882;2022-09-12T09:45:22;2.60;;;2.00;;
38379;SDS011;38377;47.418;18.882;2022-09-12T09:50:21;2.92;;;2.30;;
38379;SDS011;38377;47.418;18.882;2022-09-12T09:52:47;3.83;;;2.45;;
38379;SDS011;38377;47.418;18.882;2022-09-12T09:55:15;3.35;;;2.17;;
38379;SDS011;38377;47.418;18.882;2022-09-12T09:57:46;2.47;;;1.98;;
38379;SDS011;38377;47.418;18.882;2022-09-12T10:05:58;2.17;;;1.95;;
38379;SDS011;38377;47.418;18.882;2022-09-12T10:08:32;2.30;;;2.10;;
38379;SDS011;38377;47.418;18.882;2022-09-12T10:13:32;4.28;;;2.55;;
38379;SDS011;38377;47.418;18.882;2022-09-12T10:16:26;2.47;;;2.10;;
38379;SDS011;38377;47.418;18.882;2022-09-12T10:18:55;2.33;;;2.13;;
38379;SDS011;38377;47.418;18.882;2022-09-12T10:26:39;3.40;;;2.13;;
38379;SDS011;38377;47.418;18.882;2022-09-12T10:29:10;2.40;;;2.20;;
38379;SDS011;38377;47.418;18.882;2022-09-12T10:31:44;2.97;;;2.53;;
38379;SDS011;38377;47.418;18.882;2022-09-12T10:34:34;3.10;;;2.80;;
38379;SDS011;38377;47.418;18.882;2022-09-12T10:37:18;3.38;;;3.00;;
38379;SDS011;38377;47.418;18.882;2022-09-12T10:39:55;3.45;;;2.70;;
38379;SDS011;38377;47.418;18.882;2022-09-12T10:45:28;3.75;;;3.05;;
38379;SDS011;38377;47.418;18.882;2022-09-12T10:47:58;4.55;;;2.42;;
38379;SDS011;38377;47.418;18.882;2022-09-12T10:55:38;4.22;;;3.28;;
38379;SDS011;38377;47.418;18.882;2022-09-12T11:09:35;4.13;;;3.10;;
38379;SDS011;38377;47.418;18.882;2022-09-12T11:35:30;3.55;;;2.97;;
38379;SDS011;38377;47.418;18.882;2022-09-12T11:40:54;3.47;;;3.17;;
38379;SDS011;38377;47.418;18.882;2022-09-12T11:45:53;6.32;;;3.60;;
38379;SDS011;38377;47.418;18.882;2022-09-12T11:51:03;7.57;;;3.53;;
38379;SDS011;38377;47.418;18.882;2022-09-12T11:53:33;5.20;;;3.50;;
38379;SDS011;38377;47.418;18.882;2022-09-12T11:56:12;4.70;;;3.78;;
38379;SDS011;38377;47.418;18.882;2022-09-12T11:58:45;7.80;;;3.42;;
38379;SDS011;38377;47.418;18.882;2022-09-12T12:01:19;4.78;;;3.78;;
38379;SDS011;38377;47.418;18.882;2022-09-12T12:03:49;4.80;;;3.47;;
38379;SDS011;38377;47.418;18.882;2022-09-12T12:06:17;3.97;;;3.30;;
38379;SDS011;38377;47.418;18.882;2022-09-12T12:08:55;3.60;;;2.95;;
38379;SDS011;38377;47.418;18.882;2022-09-12T12:13:57;4.10;;;2.72;;
38379;SDS011;38377;47.418;18.882;2022-09-12T12:16:37;4.18;;;3.13;;
38379;SDS011;38377;47.418;18.882;2022-09-12T12:19:26;3.47;;;3.05;;
38379;SDS011;38377;47.418;18.882;2022-09-12T12:22:04;4.30;;;3.00;;
38379;SDS011;38377;47.418;18.882;2022-09-12T12:24:52;3.40;;;2.95;;
38379;SDS011;38377;47.418;18.882;2022-09-12T12:32:59;5.85;;;3.38;;
38379;SDS011;38377;47.418;18.882;2022-09-12T12:38:11;3.13;;;2.60;;
38379;SDS011;38377;47.418;18.882;2022-09-12T12:40:52;4.05;;;2.67;;
38379;SDS011;38377;47.418;18.882;2022-09-12T12:43:38;3.78;;;2.42;;
38379;SDS011;38377;47.418;18.882;2022-09-12T12:46:04;5.00;;;2.67;;
38379;SDS011;38377;47.418;18.882;2022-09-12T12:48:33;4.90;;;2.42;;
38379;SDS011;38377;47.418;18.882;2022-09-12T12:51:15;3.70;;;3.03;;
38379;SDS011;38377;47.418;18.882;2022-09-12T12:53:51;4.63;;;2.88;;
38379;SDS011;38377;47.418;18.882;2022-09-12T12:56:52;4.13;;;3.15;;
38379;SDS011;38377;47.418;18.882;2022-09-12T12:59:17;3.35;;;2.42;;
38379;SDS011;38377;47.418;18.882;2022-09-12T13:01:50;3.10;;;2.58;;
38379;SDS011;38377;47.418;18.882;2022-09-12T13:04:20;2.60;;;2.40;;
38379;SDS011;38377;47.418;18.882;2022-09-12T13:12:20;3.28;;;2.40;;
38379;SDS011;38377;47.418;18.882;2022-09-12T13:14:55;2.78;;;2.58;;
38379;SDS011;38377;47.418;18.882;2022-09-12T13:18:00;3.10;;;2.75;;
38379;SDS011;38377;47.418;18.882;2022-09-12T13:20:23;2.97;;;2.78;;
38379;SDS011;38377;47.418;18.882;2022-09-12T13:22:54;4.55;;;2.40;;
38379;SDS011;38377;47.418;18.882;2022-09-12T13:30:41;3.08;;;1.88;;
38379;SDS011;38377;47.418;18.882;2022-09-12T13:44:40;2.03;;;1.70;;
38379;SDS011;38377;47.418;18.882;2022-09-12T13:47:12;4.30;;;1.92;;
38379;SDS011;38377;47.418;18.882;2022-09-12T13:49:51;2.92;;;2.00;;
38379;SDS011;38377;47.418;18.882;2022-09-12T13:52:19;4.95;;;1.98;;
38379;SDS011;38377;47.418;18.882;2022-09-12T13:54:52;2.75;;;2.10;;
38379;SDS011;38377;47.418;18.882;2022-09-12T13:57:26;1.83;;;1.40;;
38379;SDS011;38377;47.418;18.882;2022-09-12T14:00:07;3.13;;;1.90;;
38379;SDS011;38377;47.418;18.882;2022-09-12T14:02:44;2.83;;;1.90;;
38379;SDS011;38377;47.418;18.882;2022-09-12T14:05:23;2.70;;;1.80;;
38379;SDS011;38377;47.418;18.882;2022-09-12T14:13:12;3.45;;;1.73;;
38379;SDS011;38377;47.418;18.882;2022-09-12T14:15:43;5.20;;;1.70;;
38379;SDS011;38377;47.418;18.882;2022-09-12T14:18:20;2.08;;;1.33;;
38379;SDS011;38377;47.418;18.882;2022-09-12T14:20:52;1.65;;;1.23;;
38379;SDS011;38377;47.418;18.882;2022-09-12T14:23:30;2.17;;;1.35;;
38379;SDS011;38377;47.418;18.882;2022-09-12T14:25:59;1.45;;;1.30;;
38379;SDS011;38377;47.418;18.882;2022-09-12T14:28:28;1.52;;;1.23;;
38379;SDS011;38377;47.418;18.882;2022-09-12T14:33:23;1.67;;;1.33;;
38379;SDS011;38377;47.418;18.882;2022-09-12T14:35:49;6.43;;;1.73;;
38379;SDS011;38377;47.418;18.882;2022-09-12T14:38:33;5.07;;;1.02;;
38379;SDS011;38377;47.418;18.882;2022-09-12T14:41:12;1.42;;;1.13;;
38379;SDS011;38377;47.418;18.882;2022-09-12T14:43:46;3.15;;;1.38;;
38379;SDS011;38377;47.418;18.882;2022-09-12T14:46:17;3.20;;;1.30;;
38379;SDS011;38377;47.418;18.882;2022-09-12T14:48:49;1.73;;;1.30;;
38379;SDS011;38377;47.418;18.882;2022-09-12T14:51:21;2.08;;;1.20;;
38379;SDS011;38377;47.418;18.882;2022-09-12T14:56:52;1.60;;;0.85;;
38379;SDS011;38377;47.418;18.882;2022-09-12T15:04:47;1.80;;;1.52;;
38379;SDS011;38377;47.418;18.882;2022-09-12T15:07:31;2.85;;;1.30;;
38379;SDS011;38377;47.418;18.882;2022-09-12T15:10:04;1.40;;;1.30;;
38379;SDS011;38377;47.418;18.882;2022-09-12T15:12:31;1.80;;;1.30;;
38379;SDS011;38377;47.418;18.882;2022-09-12T15:14:58;2.55;;;1.30;;
38379;SDS011;38377;47.418;18.882;2022-09-12T15:17:31;4.38;;;1.35;;
38379;SDS011;38377;47.418;18.882;2022-09-12T15:19:57;1.50;;;1.02;;
38379;SDS011;38377;47.418;18.882;2022-09-12T15:22:23;2.03;;;1.08;;
38379;SDS011;38377;47.418;18.882;2022-09-12T15:24:50;1.65;;;1.13;;
38379;SDS011;38377;47.418;18.882;2022-09-12T15:27:15;1.58;;;0.98;;
38379;SDS011;38377;47.418;18.882;2022-09-12T15:29:41;3.85;;;1.40;;
38379;SDS011;38377;47.418;18.882;2022-09-12T15:32:10;1.92;;;1.00;;
38379;SDS011;38377;47.418;18.882;2022-09-12T15:34:39;2.10;;;1.10;;
38379;SDS011;38377;47.418;18.882;2022-09-12T15:37:10;4.07;;;1.10;;
38379;SDS011;38377;47.418;18.882;2022-09-12T15:39:37;2.70;;;1.23;;
38379;SDS011;38377;47.418;18.882;2022-09-12T15:42:03;1.90;;;1.15;;
38379;SDS011;38377;47.418;18.882;2022-09-12T15:44:29;1.77;;;1.25;;
38379;SDS011;38377;47.418;18.882;2022-09-12T15:46:54;2.03;;;1.20;;
38379;SDS011;38377;47.418;18.882;2022-09-12T15:49:20;1.25;;;1.05;;
38379;SDS011;38377;47.418;18.882;2022-09-12T15:51:46;1.52;;;1.10;;
38379;SDS011;38377;47.418;18.882;2022-09-12T15:54:12;1.45;;;1.17;;
38379;SDS011;38377;47.418;18.882;2022-09-12T15:56:39;2.53;;;1.17;;
38379;SDS011;38377;47.418;18.882;2022-09-12T15:59:04;2.47;;;1.27;;
38379;SDS011;38377;47.418;18.882;2022-09-12T16:01:30;2.88;;;1.50;;
38379;SDS011;38377;47.418;18.882;2022-09-12T16:03:56;1.50;;;1.13;;
38379;SDS011;38377;47.418;18.882;2022-09-12T16:06:22;2.58;;;1.17;;
38379;SDS011;38377;47.418;18.882;2022-09-12T16:08:49;3.08;;;1.27;;
38379;SDS011;38377;47.418;18.882;2022-09-12T16:11:21;3.88;;;1.40;;
38379;SDS011;38377;47.418;18.882;2022-09-12T16:13:48;1.17;;;0.75;;
38379;SDS011;38377;47.418;18.882;2022-09-12T16:16:16;1.75;;;1.20;;
38379;SDS011;38377;47.418;18.882;2022-09-12T16:18:42;2.47;;;0.82;;
38379;SDS011;38377;47.418;18.882;2022-09-12T16:21:07;2.80;;;1.10;;
38379;SDS011;38377;47.418;18.882;2022-09-12T16:23:33;2.05;;;0.90;;
38379;SDS011;38377;47.418;18.882;2022-09-12T16:26:00;7.10;;;1.25;;
38379;SDS011;38377;47.418;18.882;2022-09-12T16:28:28;1.13;;;0.77;;
38379;SDS011;38377;47.418;18.882;2022-09-12T16:33:21;4.50;;;1.05;;
38379;SDS011;38377;47.418;18.882;2022-09-12T16:35:47;1.30;;;1.00;;
38379;SDS011;38377;47.418;18.882;2022-09-12T16:38:15;1.48;;;1.10;;
38379;SDS011;38377;47.418;18.882;2022-09-12T16:40:43;1.25;;;0.90;;
38379;SDS011;38377;47.418;18.882;2022-09-12T16:43:09;2.35;;;1.20;;
38379;SDS011;38377;47.418;18.882;2022-09-12T16:45:35;1.77;;;1.05;;
38379;SDS011;38377;47.418;18.882;2022-09-12T16:48:00;1.60;;;1.05;;
38379;SDS011;38377;47.418;18.882;2022-09-12T16:50:26;1.90;;;0.93;;
38379;SDS011;38377;47.418;18.882;2022-09-12T16:52:53;1.55;;;0.98;;
38379;SDS011;38377;47.418;18.882;2022-09-12T16:55:18;2.83;;;1.55;;
38379;SDS011;38377;47.418;18.882;2022-09-12T16:57:44;1.30;;;1.10;;
38379;SDS011;38377;47.418;18.882;2022-09-12T17:00:13;1.85;;;1.05;;
38379;SDS011;38377;47.418;18.882;2022-09-12T17:02:39;2.08;;;1.35;;
38379;SDS011;38377;47.418;18.882;2022-09-12T17:05:05;2.47;;;1.20;;
38379;SDS011;38377;47.418;18.882;2022-09-12T17:07:31;4.22;;;1.42;;
38379;SDS011;38377;47.418;18.882;2022-09-12T17:09:58;1.48;;;1.17;;
38379;SDS011;38377;47.418;18.882;2022-09-12T17:12:23;3.65;;;1.58;;
38379;SDS011;38377;47.418;18.882;2022-09-12T17:14:49;5.28;;;1.35;;
38379;SDS011;38377;47.418;18.882;2022-09-12T17:17:15;2.90;;;1.67;;
38379;SDS011;38377;47.418;18.882;2022-09-12T17:19:41;1.92;;;1.65;;
38379;SDS011;38377;47.418;18.882;2022-09-12T17:22:08;2.38;;;1.85;;
38379;SDS011;38377;47.418;18.882;2022-09-12T17:24:33;2.53;;;1.30;;
38379;SDS011;38377;47.418;18.882;2022-09-12T17:26:59;2.33;;;1.50;;
38379;SDS011;38377;47.418;18.882;2022-09-12T17:29:25;2.35;;;1.60;;
38379;SDS011;38377;47.418;18.882;2022-09-12T17:31:51;2.97;;;1.50;;
38379;SDS011;38377;47.418;18.882;2022-09-12T17:34:19;2.40;;;1.10;;
38379;SDS011;38377;47.418;18.882;2022-09-12T17:36:44;2.25;;;1.20;;
38379;SDS011;38377;47.418;18.882;2022-09-12T17:39:12;1.50;;;1.20;;
38379;SDS011;38377;47.418;18.882;2022-09-12T17:41:39;6.38;;;1.15;;
38379;SDS011;38377;47.418;18.882;2022-09-12T17:44:07;2.13;;;1.33;;
38379;SDS011;38377;47.418;18.882;2022-09-12T17:46:35;1.73;;;1.10;;
38379;SDS011;38377;47.418;18.882;2022-09-12T17:49:11;5.97;;;1.27;;
38379;SDS011;38377;47.418;18.882;2022-09-12T17:51:38;1.77;;;1.45;;
38379;SDS011;38377;47.418;18.882;2022-09-12T17:54:14;2.45;;;1.17;;
38379;SDS011;38377;47.418;18.882;2022-09-12T17:56:42;3.05;;;1.45;;
38379;SDS011;38377;47.418;18.882;2022-09-12T17:59:12;1.48;;;1.17;;
38379;SDS011;38377;47.418;18.882;2022-09-12T18:01:39;1.70;;;1.00;;
38379;SDS011;38377;47.418;18.882;2022-09-12T18:04:24;2.83;;;1.00;;
38379;SDS011;38377;47.418;18.882;2022-09-12T18:06:51;1.77;;;1.30;;
38379;SDS011;38377;47.418;18.882;2022-09-12T18:09:18;1.70;;;1.20;;
38379;SDS011;38377;47.418;18.882;2022-09-12T18:11:46;6.07;;;1.30;;
38379;SDS011;38377;47.418;18.882;2022-09-12T18:14:13;2.85;;;1.15;;
38379;SDS011;38377;47.418;18.882;2022-09-12T18:16:39;2.90;;;1.38;;